Time,TemperatureF,DewpointF,PressureIn,WindDirection,WindDirectionDegrees,WindSpeedMPH,WindSpeedGustMPH,Humidity,HourlyPrecipIn,Conditions,Clouds,dailyrainin,SoftwareType,DateUTC
2013-09-25 00:03:00,51.0,48.0,-100.00,East,99,6.0,10.0,90,-99.99,,,0.00,,2013-09-25 05:03:00,
2013-09-25 00:12:00,51.0,48.0,-100.00,East,99,6.0,10.0,90,-99.99,,,0.00,,2013-09-25 05:12:00,
2013-09-25 00:23:00,51.0,48.0,-100.00,East,99,6.0,10.0,90,-99.99,,,0.00,,2013-09-25 05:23:00,
2013-09-25 00:53:00,50.0,48.0,-100.00,NW,309,1.0,10.0,92,0.00,,,0.00,,2013-09-25 05:53:00,
2013-09-25 01:02:00,50.0,48.0,-100.00,NW,309,1.0,10.0,92,0.00,,,0.00,,2013-09-25 06:02:00,
2013-09-25 01:13:00,50.0,48.0,-100.00,NW,309,1.0,10.0,92,0.00,,,0.00,,2013-09-25 06:13:00,
2013-09-25 01:23:00,50.0,48.0,-100.00,NW,309,1.0,10.0,92,0.00,,,0.00,,2013-09-25 06:23:00,
2013-09-25 01:52:00,50.0,47.0,-100.00,NNW,346,2.0,7.0,91,0.00,,,0.00,,2013-09-25 06:52:00,
2013-09-25 02:01:00,50.0,47.0,-100.00,NNW,346,2.0,7.0,91,0.00,,,0.00,,2013-09-25 07:01:00,
2013-09-25 02:11:00,50.0,47.0,-100.00,NNW,346,2.0,7.0,91,0.00,,,0.00,,2013-09-25 07:11:00,
2013-09-25 02:22:00,50.0,47.0,-100.00,NNW,346,2.0,7.0,91,0.00,,,0.00,,2013-09-25 07:22:00,
2013-09-25 02:53:00,51.0,49.0,-100.00,East,100,4.0,8.0,93,0.00,,,0.00,,2013-09-25 07:53:00,
2013-09-25 03:02:00,51.0,49.0,-100.00,East,100,4.0,8.0,93,0.00,,,0.00,,2013-09-25 08:02:00,
2013-09-25 03:11:00,51.0,49.0,-100.00,East,100,4.0,8.0,93,0.00,,,0.00,,2013-09-25 08:11:00,
2013-09-25 03:21:00,51.0,49.0,-100.00,East,100,4.0,8.0,93,0.00,,,0.00,,2013-09-25 08:21:00,
2013-09-25 03:53:00,52.0,50.0,-100.00,ENE,65,4.0,12.0,93,0.00,,,0.00,,2013-09-25 08:53:00,
2013-09-25 04:02:00,52.0,50.0,-100.00,ENE,65,4.0,12.0,93,0.00,,,0.00,,2013-09-25 09:02:00,
2013-09-25 04:11:00,52.0,50.0,-100.00,ENE,65,4.0,12.0,93,0.00,,,0.00,,2013-09-25 09:11:00,
2013-09-25 04:22:00,52.0,50.0,-100.00,ENE,65,4.0,12.0,93,0.00,,,0.00,,2013-09-25 09:22:00,
2013-09-25 04:54:00,48.0,47.0,-100.00,North,5,2.0,5.0,97,0.00,,,0.00,,2013-09-25 09:54:00,
2013-09-25 05:04:00,48.0,47.0,-100.00,North,5,2.0,5.0,97,0.00,,,0.00,,2013-09-25 10:04:00,
2013-09-25 05:12:00,48.0,47.0,-100.00,North,5,2.0,5.0,97,0.00,,,0.00,,2013-09-25 10:12:00,
2013-09-25 05:23:00,48.0,47.0,-100.00,North,5,2.0,5.0,97,0.00,,,0.00,,2013-09-25 10:23:00,
2013-09-25 05:53:00,45.0,44.0,-100.00,WSW,248,1.0,4.0,98,0.00,,,0.00,,2013-09-25 10:53:00,
2013-09-25 06:02:00,45.0,44.0,-100.00,WSW,248,1.0,4.0,98,0.00,,,0.00,,2013-09-25 11:02:00,
2013-09-25 06:12:00,45.0,44.0,-100.00,WSW,248,1.0,4.0,98,0.00,,,0.00,,2013-09-25 11:12:00,
2013-09-25 06:22:00,45.0,44.0,-100.00,WSW,248,1.0,4.0,98,0.00,,,0.00,,2013-09-25 11:22:00,
2013-09-25 06:52:00,44.0,44.0,-100.00,North,0,1.0,3.0,99,0.00,,,0.00,,2013-09-25 11:52:00,
2013-09-25 07:02:00,44.0,44.0,-100.00,North,0,1.0,3.0,99,0.00,,,0.00,,2013-09-25 12:02:00,
2013-09-25 07:12:00,44.0,44.0,-100.00,North,0,1.0,3.0,99,0.00,,,0.00,,2013-09-25 12:12:00,
2013-09-25 07:22:00,44.0,44.0,-100.00,North,0,1.0,3.0,99,0.00,,,0.00,,2013-09-25 12:22:00,
2013-09-25 07:52:00,44.0,44.0,-100.00,North,355,2.0,4.0,99,0.00,,,0.00,,2013-09-25 12:52:00,
2013-09-25 08:02:00,44.0,44.0,-100.00,North,355,2.0,4.0,99,0.00,,,0.00,,2013-09-25 13:02:00,
2013-09-25 08:11:00,44.0,44.0,-100.00,North,355,2.0,4.0,99,0.00,,,0.00,,2013-09-25 13:11:00,
2013-09-25 08:22:00,44.0,44.0,-100.00,North,355,2.0,4.0,99,0.00,,,0.00,,2013-09-25 13:22:00,
2013-09-25 08:52:00,50.0,50.0,-100.00,WNW,302,3.0,5.0,99,0.00,,,0.00,,2013-09-25 13:52:00,
2013-09-25 09:02:00,50.0,50.0,-100.00,WNW,302,3.0,5.0,99,0.00,,,0.00,,2013-09-25 14:02:00,
2013-09-25 09:11:00,50.0,50.0,-100.00,WNW,302,3.0,5.0,99,0.00,,,0.00,,2013-09-25 14:11:00,
2013-09-25 09:22:00,50.0,50.0,-100.00,WNW,302,3.0,5.0,99,0.00,,,0.00,,2013-09-25 14:22:00,
2013-09-25 09:52:00,60.0,57.0,-100.00,NNE,27,3.0,7.0,90,0.00,,,0.00,,2013-09-25 14:52:00,
2013-09-25 10:02:00,60.0,57.0,-100.00,NNE,27,3.0,7.0,90,0.00,,,0.00,,2013-09-25 15:02:00,
2013-09-25 10:11:00,60.0,57.0,-100.00,NNE,27,3.0,7.0,90,0.00,,,0.00,,2013-09-25 15:11:00,
2013-09-25 10:22:00,60.0,57.0,-100.00,NNE,27,3.0,7.0,90,0.00,,,0.00,,2013-09-25 15:22:00,
2013-09-25 10:54:00,65.0,55.0,-100.00,East,95,6.0,10.0,71,0.00,,,0.00,,2013-09-25 15:54:00,
2013-09-25 11:03:00,65.0,55.0,-100.00,East,95,6.0,10.0,71,0.00,,,0.00,,2013-09-25 16:03:00,
2013-09-25 11:13:00,65.0,55.0,-100.00,East,95,6.0,10.0,71,0.00,,,0.00,,2013-09-25 16:13:00,
2013-09-25 11:23:00,65.0,55.0,-100.00,East,95,6.0,10.0,71,0.00,,,0.00,,2013-09-25 16:23:00,
2013-09-25 11:53:00,67.0,52.0,-100.00,ESE,121,8.0,13.0,59,0.00,,,0.00,,2013-09-25 16:53:00,
2013-09-25 12:03:00,67.0,52.0,-100.00,ESE,121,8.0,13.0,59,0.00,,,0.00,,2013-09-25 17:03:00,
2013-09-25 12:13:00,67.0,52.0,-100.00,ESE,121,8.0,13.0,59,0.00,,,0.00,,2013-09-25 17:13:00,
2013-09-25 12:23:00,67.0,52.0,-100.00,ESE,121,8.0,13.0,59,0.00,,,0.00,,2013-09-25 17:23:00,
2013-09-25 12:52:00,65.0,51.0,-100.00,ESE,118,6.0,13.0,61,0.00,,,0.00,,2013-09-25 17:52:00,
2013-09-25 13:02:00,65.0,51.0,-100.00,ESE,118,6.0,13.0,61,0.00,,,0.00,,2013-09-25 18:02:00,
2013-09-25 13:13:00,65.0,51.0,-100.00,ESE,118,6.0,13.0,61,0.00,,,0.00,,2013-09-25 18:13:00,
2013-09-25 13:22:00,65.0,51.0,-100.00,ESE,118,6.0,13.0,61,0.00,,,0.00,,2013-09-25 18:22:00,
2013-09-25 13:52:00,68.0,51.0,-100.00,ESE,102,6.0,15.0,55,0.00,,,0.00,,2013-09-25 18:52:00,
2013-09-25 14:02:00,68.0,51.0,-100.00,ESE,102,6.0,15.0,55,0.00,,,0.00,,2013-09-25 19:02:00,
2013-09-25 14:11:00,68.0,51.0,-100.00,ESE,102,6.0,15.0,55,0.00,,,0.00,,2013-09-25 19:11:00,
2013-09-25 14:22:00,68.0,51.0,-100.00,ESE,102,6.0,15.0,55,0.00,,,0.00,,2013-09-25 19:22:00,
2013-09-25 14:53:00,70.0,53.0,-100.00,ESE,105,4.0,11.0,55,0.00,,,0.00,,2013-09-25 19:53:00,
2013-09-25 15:03:00,70.0,53.0,-100.00,ESE,105,4.0,11.0,55,0.00,,,0.00,,2013-09-25 20:03:00,
2013-09-25 15:12:00,70.0,53.0,-100.00,ESE,105,4.0,11.0,55,0.00,,,0.00,,2013-09-25 20:12:00,
2013-09-25 15:22:00,70.0,53.0,-100.00,ESE,105,4.0,11.0,55,0.00,,,0.00,,2013-09-25 20:22:00,
2013-09-25 15:52:00,69.0,53.0,-100.00,ESE,107,5.0,10.0,56,0.00,,,0.00,,2013-09-25 20:52:00,
2013-09-25 16:01:00,69.0,53.0,-100.00,ESE,107,5.0,10.0,56,0.00,,,0.00,,2013-09-25 21:01:00,
2013-09-25 16:12:00,69.0,53.0,-100.00,ESE,107,5.0,10.0,56,0.00,,,0.00,,2013-09-25 21:12:00,
2013-09-25 16:22:00,69.0,53.0,-100.00,ESE,107,5.0,10.0,56,0.00,,,0.00,,2013-09-25 21:22:00,
2013-09-25 16:55:00,69.0,52.0,-100.00,SE,128,6.0,11.0,54,0.00,,,0.00,,2013-09-25 21:55:00,
2013-09-25 17:04:00,69.0,52.0,-100.00,SE,128,6.0,11.0,54,0.00,,,0.00,,2013-09-25 22:04:00,
2013-09-25 17:14:00,69.0,52.0,-100.00,SE,128,6.0,11.0,54,0.00,,,0.00,,2013-09-25 22:14:00,
2013-09-25 17:23:00,69.0,52.0,-100.00,SE,128,6.0,11.0,54,0.00,,,0.00,,2013-09-25 22:23:00,
2013-09-25 17:53:00,67.0,51.0,-100.00,ESE,115,5.0,10.0,56,0.00,,,0.00,,2013-09-25 22:53:00,
2013-09-25 18:03:00,67.0,51.0,-100.00,ESE,115,5.0,10.0,56,0.00,,,0.00,,2013-09-25 23:03:00,
2013-09-25 18:12:00,67.0,51.0,-100.00,ESE,115,5.0,10.0,56,0.00,,,0.00,,2013-09-25 23:12:00,
2013-09-25 18:22:00,67.0,51.0,-100.00,ESE,115,5.0,10.0,56,0.00,,,0.00,,2013-09-25 23:22:00,
2013-09-25 18:53:00,63.0,52.0,-100.00,ESE,110,6.0,8.0,67,0.00,,,0.00,,2013-09-25 23:53:00,
2013-09-25 19:02:00,63.0,52.0,-100.00,ESE,110,6.0,8.0,67,0.00,,,0.00,,2013-09-26 00:02:00,
2013-09-25 19:12:00,63.0,52.0,-100.00,ESE,110,6.0,8.0,67,0.00,,,0.00,,2013-09-26 00:12:00,
2013-09-25 19:22:00,63.0,52.0,-100.00,ESE,110,6.0,8.0,67,0.00,,,0.00,,2013-09-26 00:22:00,
2013-09-25 19:52:00,58.0,52.0,-100.00,ESE,106,6.0,11.0,79,0.00,,,0.00,,2013-09-26 00:52:00,
2013-09-25 20:02:00,58.0,52.0,-100.00,ESE,106,6.0,11.0,79,0.00,,,0.00,,2013-09-26 01:02:00,
2013-09-25 20:12:00,58.0,52.0,-100.00,ESE,106,6.0,11.0,79,0.00,,,0.00,,2013-09-26 01:12:00,
2013-09-25 20:22:00,58.0,52.0,-100.00,ESE,106,6.0,11.0,79,0.00,,,0.00,,2013-09-26 01:22:00,
2013-09-25 20:52:00,56.0,51.0,-100.00,ESE,113,5.0,11.0,83,0.00,,,0.00,,2013-09-26 01:52:00,
2013-09-25 21:02:00,56.0,51.0,-100.00,ESE,113,5.0,11.0,83,0.00,,,0.00,,2013-09-26 02:02:00,
2013-09-25 21:12:00,56.0,51.0,-100.00,ESE,113,5.0,11.0,83,0.00,,,0.00,,2013-09-26 02:12:00,
2013-09-25 21:21:00,56.0,51.0,-100.00,ESE,113,5.0,11.0,83,0.00,,,0.00,,2013-09-26 02:21:00,
2013-09-25 22:12:00,53.0,50.0,-100.00,East,95,5.0,7.0,89,0.00,,,0.00,,2013-09-26 03:12:00,
2013-09-25 22:22:00,53.0,50.0,-100.00,East,95,5.0,7.0,89,0.00,,,0.00,,2013-09-26 03:22:00,
2013-09-25 22:55:00,52.0,49.0,-100.00,SE,128,2.0,7.0,90,0.00,,,-99.99,,2013-09-26 03:55:00,
2013-09-25 23:04:00,52.0,49.0,-100.00,SE,128,2.0,7.0,90,0.00,,,-99.99,,2013-09-26 04:04:00,
2013-09-25 23:14:00,52.0,49.0,-100.00,SE,128,2.0,7.0,90,0.00,,,-99.99,,2013-09-26 04:14:00,
2013-09-25 23:24:00,52.0,49.0,-100.00,SE,128,2.0,7.0,90,0.00,,,-99.99,,2013-09-26 04:24:00,
2013-09-25 23:54:00,52.0,49.0,-100.00,East,96,4.0,7.0,91,0.00,,,0.00,,2013-09-26 04:54:00,